TRA62A GCLP-EHAM
Flight info
| Callsign | TRA62A |
|---|---|
| Flight time | N/A |
| Altitude | 34000 |
| Route | VASTO DCT NIDEB DCT TIGGI DCT EXFUN DCT PINEK DCT LOTEE DCT AZFIC DCT ERIGA DCT GODIX DCT PODEM DCT BAZOS DCT LUMIL DCT BELOB UY873 DENUT |
| Aircraft | B738/M-SDE2E3FGHIRWXY/LB1 |
Departure
| Time | 2026-05-04 10:33 |
|---|---|
| Airport | Gran Canaria Airport (GCLP) |
Arrival
| Time | N/A |
|---|---|
| Airport | Amsterdam Airport Schiphol (EHAM) |
| Time | Latitude | Longitude | Altitude | Speed | Heading |
|---|---|---|---|---|---|
| 2026-05-04 09:54 | 27.93857 | -15.38812 | 124 ft | 0 kts | 291° |
| 2026-05-04 10:22 | 27.93856 | -15.38810 | 124 ft | 1 kts | 292° |
| 2026-05-04 10:23 | 27.93851 | -15.38794 | 123 ft | 2 kts | 291° |
| 2026-05-04 10:23 | 27.93846 | -15.38779 | 122 ft | 1 kts | 292° |
| 2026-05-04 10:25 | 27.93872 | -15.38715 | 118 ft | 0 kts | 201° |
| 2026-05-04 10:27 | 27.93870 | -15.38716 | 118 ft | 2 kts | 201° |
| 2026-05-04 10:27 | 27.93818 | -15.38739 | 119 ft | 11 kts | 201° |
| 2026-05-04 10:28 | 27.93735 | -15.38776 | 121 ft | 13 kts | 202° |
| 2026-05-04 10:28 | 27.93635 | -15.38820 | 122 ft | 16 kts | 201° |
| 2026-05-04 10:28 | 27.93529 | -15.38864 | 122 ft | 15 kts | 196° |
| 2026-05-04 10:28 | 27.93457 | -15.38862 | 121 ft | 10 kts | 137° |
| 2026-05-04 10:29 | 27.93410 | -15.38772 | 112 ft | 15 kts | 146° |
| 2026-05-04 10:29 | 27.93292 | -15.38805 | 103 ft | 20 kts | 202° |
| 2026-05-04 10:29 | 27.93159 | -15.38866 | 101 ft | 19 kts | 207° |
| 2026-05-04 10:29 | 27.93032 | -15.38928 | 98 ft | 20 kts | 201° |
| 2026-05-04 10:30 | 27.92903 | -15.38983 | 98 ft | 19 kts | 202° |
| 2026-05-04 10:30 | 27.92784 | -15.39037 | 100 ft | 17 kts | 202° |
| 2026-05-04 10:30 | 27.92669 | -15.39088 | 103 ft | 17 kts | 201° |
| 2026-05-04 10:30 | 27.92566 | -15.39133 | 108 ft | 14 kts | 201° |
| 2026-05-04 10:31 | 27.92482 | -15.39170 | 113 ft | 10 kts | 201° |
| 2026-05-04 10:31 | 27.92409 | -15.39202 | 117 ft | 12 kts | 202° |
| 2026-05-04 10:32 | 27.92068 | -15.39154 | 107 ft | 28 kts | 22° |
| 2026-05-04 10:33 | 27.92494 | -15.38968 | 96 ft | 101 kts | 21° |
| 2026-05-04 10:33 | 27.93362 | -15.38578 | 88 ft | 162 kts | 22° |
| 2026-05-04 10:33 | 27.94446 | -15.38079 | 647 ft | 172 kts | 24° |
| 2026-05-04 10:33 | 27.95582 | -15.37576 | 1380 ft | 179 kts | 22° |
| 2026-05-04 10:34 | 27.96807 | -15.37092 | 1735 ft | 198 kts | 21° |
| 2026-05-04 10:34 | 27.98141 | -15.36536 | 2076 ft | 213 kts | 22° |
| 2026-05-04 10:34 | 27.99575 | -15.35916 | 2510 ft | 225 kts | 22° |
| 2026-05-04 10:34 | 28.01061 | -15.35270 | 2995 ft | 236 kts | 22° |
| 2026-05-04 10:35 | 28.02630 | -15.34581 | 3424 ft | 249 kts | 22° |
| 2026-05-04 10:35 | 28.04283 | -15.33860 | 3889 ft | 259 kts | 21° |
| 2026-05-04 10:35 | 28.05983 | -15.33123 | 3977 ft | 260 kts | 21° |
| 2026-05-04 10:35 | 28.07682 | -15.32385 | 4062 ft | 270 kts | 21° |
| 2026-05-04 10:36 | 28.09409 | -15.31634 | 4877 ft | 265 kts | 21° |
| 2026-05-04 10:36 | 28.11163 | -15.30871 | 5502 ft | 270 kts | 20° |
| 2026-05-04 10:36 | 28.12924 | -15.30105 | 6147 ft | 273 kts | 20° |
| 2026-05-04 10:36 | 28.14714 | -15.29374 | 6744 ft | 277 kts | 16° |
| 2026-05-04 10:37 | 28.16577 | -15.28771 | 7326 ft | 281 kts | 12° |
| 2026-05-04 10:37 | 28.18492 | -15.28250 | 7930 ft | 285 kts | 11° |
| 2026-05-04 10:37 | 28.20423 | -15.27737 | 8518 ft | 288 kts | 10° |
| 2026-05-04 10:37 | 28.22392 | -15.27195 | 9112 ft | 292 kts | 10° |
| 2026-05-04 10:39 | 28.35031 | -15.22888 | 11335 ft | 364 kts | 27° |
| 2026-05-04 10:39 | 28.37225 | -15.21299 | 11635 ft | 377 kts | 31° |
| 2026-05-04 10:39 | 28.39417 | -15.19585 | 12014 ft | 387 kts | 31° |
| 2026-05-04 10:40 | 28.41617 | -15.17847 | 12624 ft | 389 kts | 31° |
| 2026-05-04 10:40 | 28.43858 | -15.16095 | 13219 ft | 392 kts | 31° |
| 2026-05-04 10:40 | 28.46124 | -15.14351 | 13757 ft | 396 kts | 30° |
| 2026-05-04 10:40 | 28.48394 | -15.12628 | 14362 ft | 398 kts | 30° |
| 2026-05-04 10:41 | 28.50737 | -15.10863 | 14926 ft | 402 kts | 30° |
| 2026-05-04 10:41 | 28.53088 | -15.09099 | 15469 ft | 407 kts | 30° |
| 2026-05-04 10:41 | 28.55452 | -15.07329 | 16078 ft | 409 kts | 30° |
| 2026-05-04 10:41 | 28.57844 | -15.05538 | 16555 ft | 415 kts | 30° |
| 2026-05-04 10:42 | 28.60260 | -15.03729 | 17150 ft | 417 kts | 30° |
| 2026-05-04 10:42 | 28.62682 | -15.01913 | 17650 ft | 422 kts | 30° |
| 2026-05-04 10:42 | 28.65130 | -15.00075 | 18132 ft | 426 kts | 30° |
| 2026-05-04 10:42 | 28.67638 | -14.98191 | 18618 ft | 431 kts | 30° |
| 2026-05-04 10:43 | 28.70126 | -14.96320 | 19105 ft | 435 kts | 30° |
| 2026-05-04 10:44 | 28.88426 | -14.82541 | 22275 ft | 463 kts | 29° |
| 2026-05-04 10:45 | 28.91096 | -14.80526 | 22724 ft | 466 kts | 29° |
| 2026-05-04 10:45 | 28.93814 | -14.78473 | 23057 ft | 472 kts | 29° |
| 2026-05-04 10:45 | 28.96534 | -14.76415 | 23551 ft | 473 kts | 29° |
| 2026-05-04 10:45 | 28.99295 | -14.74326 | 23881 ft | 478 kts | 29° |
| 2026-05-04 10:46 | 29.02074 | -14.72221 | 24295 ft | 481 kts | 30° |
| 2026-05-04 10:46 | 29.04893 | -14.70084 | 24717 ft | 484 kts | 29° |
| 2026-05-04 10:46 | 29.07678 | -14.67971 | 25149 ft | 486 kts | 29° |
| 2026-05-04 10:46 | 29.10520 | -14.65813 | 25464 ft | 491 kts | 29° |
| 2026-05-04 10:47 | 29.13381 | -14.63639 | 25921 ft | 492 kts | 29° |
| 2026-05-04 10:47 | 29.16214 | -14.61485 | 26190 ft | 497 kts | 29° |
| 2026-05-04 10:47 | 29.19105 | -14.59284 | 26613 ft | 499 kts | 29° |
| 2026-05-04 10:47 | 29.22019 | -14.57064 | 26969 ft | 502 kts | 29° |
| 2026-05-04 10:49 | 29.42233 | -14.41620 | 30086 ft | 499 kts | 28° |
| 2026-05-04 10:49 | 29.45148 | -14.39387 | 30518 ft | 498 kts | 28° |
| 2026-05-04 10:50 | 29.48010 | -14.37193 | 30901 ft | 498 kts | 28° |
| 2026-05-04 10:51 | 29.68211 | -14.21678 | 33070 ft | 499 kts | 28° |
| 2026-05-04 10:52 | 29.71066 | -14.19480 | 33306 ft | 500 kts | 28° |
| 2026-05-04 10:52 | 29.73968 | -14.17244 | 33552 ft | 500 kts | 28° |
| 2026-05-04 10:52 | 29.76852 | -14.15020 | 33861 ft | 500 kts | 28° |
| 2026-05-04 10:54 | 29.97516 | -13.99054 | 34090 ft | 520 kts | 28° |
| 2026-05-04 10:54 | 30.00546 | -13.96700 | 34089 ft | 519 kts | 28° |
| 2026-05-04 10:56 | 30.24484 | -13.78047 | 34092 ft | 518 kts | 28° |
| 2026-05-04 10:57 | 30.30437 | -13.73397 | 34089 ft | 517 kts | 28° |
| 2026-05-04 10:57 | 30.36411 | -13.68721 | 34092 ft | 516 kts | 28° |
| 2026-05-04 10:58 | 30.42354 | -13.64064 | 34095 ft | 517 kts | 28° |
| 2026-05-04 10:58 | 30.48326 | -13.59378 | 34095 ft | 516 kts | 28° |
| 2026-05-04 10:59 | 30.54386 | -13.54964 | 34098 ft | 513 kts | 24° |
| 2026-05-04 10:59 | 30.60620 | -13.51007 | 34096 ft | 512 kts | 21° |
| 2026-05-04 11:00 | 30.66911 | -13.47165 | 34098 ft | 509 kts | 21° |
| 2026-05-04 11:02 | 30.91865 | -13.31620 | 34104 ft | 511 kts | 22° |
| 2026-05-04 11:05 | 31.38330 | -13.02123 | 34110 ft | 505 kts | 23° |
| 2026-05-04 11:06 | 31.44479 | -12.98196 | 34292 ft | 503 kts | 23° |
| 2026-05-04 11:06 | 31.47551 | -12.96232 | 34442 ft | 504 kts | 24° |
| 2026-05-04 11:06 | 31.50635 | -12.94259 | 34612 ft | 505 kts | 24° |
| 2026-05-04 11:08 | 31.72005 | -12.80536 | 36114 ft | 498 kts | 24° |
| 2026-05-04 11:10 | 31.93142 | -12.66895 | 36116 ft | 495 kts | 24° |
| 2026-05-04 11:12 | 32.17279 | -12.51230 | 36116 ft | 495 kts | 24° |
| 2026-05-04 11:12 | 32.23304 | -12.47306 | 36121 ft | 497 kts | 24° |
| 2026-05-04 11:13 | 32.29306 | -12.43389 | 36120 ft | 495 kts | 24° |
| 2026-05-04 11:13 | 32.35339 | -12.39446 | 36120 ft | 495 kts | 24° |
| 2026-05-04 11:14 | 32.41375 | -12.35496 | 36121 ft | 494 kts | 24° |
| 2026-05-04 11:16 | 32.65512 | -12.19639 | 36125 ft | 497 kts | 24° |
| 2026-05-04 11:16 | 32.71513 | -12.15682 | 36125 ft | 494 kts | 24° |
| 2026-05-04 11:17 | 32.77543 | -12.11702 | 36126 ft | 495 kts | 24° |
| 2026-05-04 11:19 | 33.02040 | -11.96999 | 36136 ft | 488 kts | 12° |
| 2026-05-04 11:19 | 33.08530 | -11.94785 | 35972 ft | 483 kts | 9° |
| 2026-05-04 11:20 | 33.11803 | -11.93742 | 36129 ft | 483 kts | 8° |
| 2026-05-04 11:20 | 33.15060 | -11.92708 | 36131 ft | 486 kts | 8° |
| 2026-05-04 11:20 | 33.21567 | -11.90597 | 36129 ft | 487 kts | 9° |
| 2026-05-04 11:22 | 33.47612 | -11.81747 | 36130 ft | 486 kts | 9° |
| 2026-05-04 11:23 | 33.54137 | -11.79503 | 36133 ft | 488 kts | 9° |
| 2026-05-04 11:25 | 33.76803 | -11.71687 | 36131 ft | 483 kts | 9° |
| 2026-05-04 11:25 | 33.83284 | -11.69445 | 36132 ft | 483 kts | 8° |
| 2026-05-04 11:27 | 34.12308 | -11.59362 | 36132 ft | 482 kts | 8° |
| 2026-05-04 11:28 | 34.18762 | -11.57110 | 36131 ft | 481 kts | 8° |
| 2026-05-04 11:28 | 34.25202 | -11.54863 | 36133 ft | 483 kts | 8° |
| 2026-05-04 11:29 | 34.31669 | -11.52600 | 36133 ft | 482 kts | 8° |
| 2026-05-04 11:29 | 34.38124 | -11.50338 | 36137 ft | 482 kts | 8° |
| 2026-05-04 11:33 | 34.83220 | -11.34425 | 36151 ft | 479 kts | 8° |